createdAt,value
2019-02-06T00:01:39.301Z,81.07
2019-02-06T00:03:46.655Z,65.33
2019-02-06T00:05:53.853Z,72.30
2019-02-06T00:08:01.196Z,66.37
2019-02-06T00:10:08.707Z,66.90
2019-02-06T00:12:16.104Z,63.20
2019-02-06T00:14:23.554Z,65.50
2019-02-06T00:16:30.704Z,62.83
2019-02-06T00:18:38.118Z,57.23
2019-02-06T00:20:45.618Z,71.80
2019-02-06T00:22:53.037Z,68.17
2019-02-06T00:25:00.444Z,66.03
2019-02-06T00:27:07.973Z,68.10
2019-02-06T00:29:15.361Z,64.47
2019-02-06T00:31:22.527Z,69.97
2019-02-06T00:33:29.960Z,64.27
2019-02-06T00:35:37.306Z,66.43
2019-02-06T00:37:44.753Z,66.30
2019-02-06T00:39:52.160Z,63.53
2019-02-06T00:42:01.311Z,65.00
2019-02-06T00:44:08.814Z,69.30
2019-02-06T00:46:16.281Z,64.27
2019-02-06T00:48:23.787Z,61.73
2019-02-06T00:50:31.303Z,65.57
2019-02-06T00:52:38.708Z,60.67
2019-02-06T00:54:46.049Z,63.43
2019-02-06T00:56:53.630Z,69.50
2019-02-06T00:59:01.129Z,70.37
2019-02-06T01:01:09.035Z,64.53
2019-02-06T01:03:16.630Z,62.60
2019-02-06T01:05:24.189Z,65.57
2019-02-06T01:07:31.590Z,59.43
2019-02-06T01:09:39.045Z,62.47
2019-02-06T01:11:46.426Z,60.73
2019-02-06T01:13:53.887Z,62.70
2019-02-06T01:16:01.283Z,66.83
2019-02-06T01:18:08.705Z,63.43
2019-02-06T01:20:17.117Z,67.77
2019-02-06T01:22:24.509Z,63.57
2019-02-06T01:24:32.219Z,58.80
2019-02-06T01:26:39.781Z,59.43
2019-02-06T01:28:47.051Z,65.83
2019-02-06T01:31:04.062Z,73.97
2019-02-06T01:33:11.477Z,72.73
2019-02-06T01:35:18.849Z,61.87
2019-02-06T01:37:26.227Z,69.83
2019-02-06T01:39:33.864Z,64.87
2019-02-06T01:41:41.238Z,64.57
2019-02-06T01:43:48.627Z,58.30
2019-02-06T01:45:56.023Z,62.30
2019-02-06T01:48:03.383Z,63.53
2019-02-06T01:50:12.430Z,65.80
2019-02-06T01:52:19.441Z,64.17
2019-02-06T01:54:26.473Z,63.10
2019-02-06T01:56:33.535Z,64.57
2019-02-06T01:58:40.734Z,61.50
2019-02-06T02:00:47.980Z,59.83
2019-02-06T02:02:55.316Z,57.30
2019-02-06T02:05:02.728Z,58.37
2019-02-06T02:07:10.555Z,60.03
2019-02-06T02:09:21.297Z,71.20
2019-02-06T02:11:28.660Z,62.67
2019-02-06T02:13:36.231Z,65.07
2019-02-06T02:15:43.718Z,68.33
2019-02-06T02:17:51.088Z,58.00
2019-02-06T02:19:58.434Z,56.00
2019-02-06T02:22:06.078Z,56.87
2019-02-06T02:24:13.338Z,61.40
2019-02-06T02:26:20.774Z,56.67
2019-02-06T02:28:28.095Z,65.93
2019-02-06T02:30:43.338Z,55.90
2019-02-06T02:32:50.338Z,59.63
2019-02-06T02:34:57.392Z,58.33
2019-02-06T02:37:04.797Z,59.47
2019-02-06T02:39:11.850Z,57.20
2019-02-06T02:41:18.887Z,60.57
2019-02-06T02:43:25.887Z,55.77
2019-02-06T02:45:33.207Z,52.93
2019-02-06T02:47:40.301Z,58.47
2019-02-06T02:49:47.663Z,61.57
2019-02-06T02:51:54.916Z,59.23
2019-02-06T02:54:02.164Z,57.97
2019-02-06T02:56:09.369Z,60.67
2019-02-06T02:58:16.788Z,57.27
2019-02-06T03:00:30.899Z,54.77
2019-02-06T03:02:47.540Z,54.13
2019-02-06T03:05:05.219Z,53.87
2019-02-06T03:07:12.508Z,64.87
2019-02-06T03:09:19.833Z,59.83
2019-02-06T03:11:27.147Z,51.83
2019-02-06T03:13:34.801Z,58.97
2019-02-06T03:15:42.080Z,58.73
2019-02-06T03:17:49.481Z,58.43
2019-02-06T03:19:56.920Z,53.37
2019-02-06T03:22:04.267Z,58.83
2019-02-06T03:24:12.053Z,60.17
2019-02-06T03:26:19.429Z,60.93
2019-02-06T03:28:26.838Z,59.00
2019-02-06T03:30:34.232Z,55.33
2019-02-06T03:32:41.782Z,53.47
2019-02-06T03:34:49.060Z,56.23
2019-02-06T03:36:56.417Z,56.13
2019-02-06T03:39:05.313Z,56.60
2019-02-06T03:41:12.677Z,56.43
2019-02-06T03:43:19.911Z,56.27
2019-02-06T03:45:27.144Z,58.17
2019-02-06T03:47:34.554Z,50.67
2019-02-06T03:49:42.769Z,53.43
2019-02-06T03:51:50.175Z,56.37
2019-02-06T03:53:57.707Z,53.83
2019-02-06T03:56:05.182Z,54.87
2019-02-06T03:58:12.697Z,49.17
2019-02-06T04:00:20.133Z,57.80
2019-02-06T04:02:27.585Z,56.40
2019-02-06T04:04:35.018Z,52.70
2019-02-06T04:06:53.675Z,49.63
2019-02-06T04:08:51.110Z,51.53
2019-02-06T04:10:58.677Z,55.87
2019-02-06T04:13:05.991Z,48.17
2019-02-06T04:15:13.081Z,55.90
2019-02-06T04:17:20.108Z,52.00
2019-02-06T04:19:27.819Z,51.53
2019-02-06T04:21:35.194Z,51.20
2019-02-06T04:23:42.592Z,52.17
2019-02-06T04:25:50.107Z,50.50
2019-02-06T04:27:57.535Z,53.73
2019-02-06T04:30:05.097Z,49.00
2019-02-06T04:32:12.508Z,55.00
2019-02-06T04:34:19.848Z,54.77
2019-02-06T04:36:27.228Z,56.77
2019-02-06T04:38:34.651Z,61.17
2019-02-06T04:40:42.053Z,48.20
2019-02-06T04:42:49.222Z,50.30
2019-02-06T04:44:56.618Z,58.23
2019-02-06T04:47:04.368Z,48.90
2019-02-06T04:49:11.868Z,45.80
2019-02-06T04:51:19.325Z,47.83
2019-02-06T04:53:26.700Z,46.60
2019-02-06T04:55:34.052Z,52.63
2019-02-06T04:57:41.512Z,51.00
2019-02-06T04:59:48.918Z,49.30
2019-02-06T05:01:56.388Z,49.93
2019-02-06T05:04:03.842Z,54.67
2019-02-06T05:06:11.157Z,54.67
2019-02-06T05:08:18.634Z,57.80
2019-02-06T05:10:25.867Z,55.57
2019-02-06T05:12:33.334Z,50.00
2019-02-06T05:14:41.052Z,69.67
2019-02-06T05:16:48.488Z,70.30
2019-02-06T05:18:55.682Z,56.50
2019-02-06T05:21:03.173Z,79.20
2019-02-06T05:23:10.928Z,78.87
2019-02-06T05:25:18.351Z,67.10
2019-02-06T05:27:26.026Z,66.63
2019-02-06T05:29:34.434Z,64.53
2019-02-06T05:31:41.925Z,67.47
2019-02-06T05:33:49.286Z,82.33
2019-02-06T05:35:56.690Z,58.27
2019-02-06T05:38:04.099Z,65.30
2019-02-06T05:40:11.365Z,53.20
2019-02-06T05:42:18.918Z,60.90
2019-02-06T05:44:26.402Z,68.40
2019-02-06T05:46:33.762Z,56.90
2019-02-06T05:48:44.349Z,62.97
2019-02-06T05:50:51.678Z,60.13
2019-02-06T05:52:59.008Z,49.27
2019-02-06T05:55:07.200Z,52.10
2019-02-06T05:57:14.432Z,65.20
2019-02-06T05:59:21.735Z,51.17
2019-02-06T06:01:29.061Z,62.10
2019-02-06T06:03:36.574Z,81.97
2019-02-06T06:05:44.073Z,59.77
2019-02-06T06:07:51.532Z,65.93
2019-02-06T06:09:59.115Z,47.90
2019-02-06T06:12:06.595Z,62.97
2019-02-06T06:14:13.945Z,53.70
2019-02-06T06:16:21.474Z,49.13
2019-02-06T06:18:28.789Z,82.17
2019-02-06T06:20:36.256Z,77.03
2019-02-06T06:22:43.654Z,70.03
2019-02-06T06:24:51.138Z,64.23
2019-02-06T06:26:58.525Z,62.60
2019-02-06T06:29:05.987Z,58.13
2019-02-06T06:31:13.334Z,70.20
2019-02-06T06:33:20.719Z,49.90
2019-02-06T06:35:28.841Z,77.50
2019-02-06T06:37:36.190Z,76.43
2019-02-06T06:39:43.664Z,76.53
2019-02-06T06:41:51.058Z,59.63
2019-02-06T06:43:58.483Z,67.27
2019-02-06T06:46:05.947Z,48.90
2019-02-06T06:48:13.302Z,59.70
2019-02-06T06:50:22.919Z,62.53
2019-02-06T06:52:30.041Z,51.50
2019-02-06T06:54:37.461Z,48.07
2019-02-06T06:56:44.779Z,59.73
2019-02-06T06:58:52.131Z,46.13
2019-02-06T07:00:59.583Z,50.40
2019-02-06T07:03:07.133Z,70.53
2019-02-06T07:05:14.562Z,58.20
2019-02-06T07:07:22.012Z,50.77
2019-02-06T07:09:29.362Z,48.47
2019-02-06T07:11:36.834Z,49.13
2019-02-06T07:13:44.288Z,84.63
2019-02-06T07:15:51.623Z,66.70
2019-02-06T07:17:59.148Z,66.83
2019-02-06T07:20:07.453Z,71.57
2019-02-06T07:22:14.815Z,74.33
2019-02-06T07:24:22.253Z,74.37
2019-02-06T07:26:29.715Z,93.00
2019-02-06T07:28:37.048Z,75.53
2019-02-06T07:30:56.238Z,111.03
2019-02-06T07:33:06.737Z,82.37
2019-02-06T07:35:13.960Z,92.87
2019-02-06T07:37:21.280Z,111.60
2019-02-06T07:39:28.676Z,89.87
2019-02-06T07:41:35.856Z,94.00
2019-02-06T07:43:43.705Z,94.03
2019-02-06T07:45:51.245Z,48.83
2019-02-06T07:47:58.827Z,63.80
2019-02-06T07:50:07.780Z,61.60
2019-02-06T07:52:15.328Z,62.13
2019-02-06T07:54:22.707Z,53.33
2019-02-06T07:56:30.245Z,48.47
2019-02-06T07:58:37.498Z,47.97
2019-02-06T08:00:44.908Z,43.97
2019-02-06T08:02:52.579Z,43.60
2019-02-06T08:05:06.391Z,42.90
2019-02-06T08:07:13.806Z,45.80
2019-02-06T08:09:21.165Z,47.40
2019-02-06T08:11:28.592Z,75.37
2019-02-06T08:13:35.876Z,49.70
2019-02-06T08:15:43.418Z,42.57
2019-02-06T08:17:50.909Z,46.87
2019-02-06T08:19:58.277Z,41.20
2019-02-06T08:22:05.807Z,37.80
2019-02-06T08:24:13.361Z,41.27
2019-02-06T08:26:20.769Z,44.93
2019-02-06T08:28:28.205Z,36.77
2019-02-06T08:30:41.320Z,41.97
2019-02-06T08:32:48.586Z,48.07
2019-02-06T08:34:56.100Z,43.03
2019-02-06T08:37:03.648Z,44.00
2019-02-06T08:39:11.486Z,39.37
2019-02-06T08:41:18.940Z,37.40
2019-02-06T08:43:26.395Z,37.57
2019-02-06T08:45:34.091Z,39.07
2019-02-06T08:47:41.801Z,43.33
2019-02-06T08:49:49.334Z,41.93
2019-02-06T08:51:56.809Z,41.83
2019-02-06T08:54:04.278Z,43.50
2019-02-06T08:56:11.835Z,37.40
2019-02-06T08:58:19.330Z,49.83
2019-02-06T09:00:29.855Z,47.20
2019-02-06T09:02:37.505Z,85.30
2019-02-06T09:04:55.563Z,68.03
2019-02-06T09:06:54.718Z,59.67
2019-02-06T09:09:02.564Z,86.13
2019-02-06T09:11:10.980Z,87.70
2019-02-06T09:13:18.590Z,80.77
2019-02-06T09:15:27.330Z,66.00
2019-02-06T09:17:34.970Z,85.63
2019-02-06T09:19:42.558Z,73.27
2019-02-06T09:21:50.154Z,70.77
2019-02-06T09:23:57.850Z,57.10
2019-02-06T09:26:05.416Z,74.43
2019-02-06T09:28:12.859Z,51.43
2019-02-06T09:30:23.402Z,48.77
2019-02-06T09:32:30.900Z,57.03
2019-02-06T09:34:38.525Z,55.97
2019-02-06T09:36:46.028Z,56.40
2019-02-06T09:38:53.680Z,41.63
2019-02-06T09:41:01.173Z,43.90
2019-02-06T09:43:08.891Z,51.17
2019-02-06T09:45:16.325Z,56.43
2019-02-06T09:47:23.655Z,43.13
2019-02-06T09:49:31.135Z,43.93
2019-02-06T09:51:38.657Z,45.40
2019-02-06T09:53:46.235Z,46.80
2019-02-06T09:55:53.688Z,38.10
2019-02-06T09:58:01.178Z,45.07
2019-02-06T10:00:13.294Z,40.77
2019-02-06T10:02:20.786Z,41.57
2019-02-06T10:04:28.216Z,47.77
2019-02-06T10:06:35.803Z,45.50
2019-02-06T10:08:43.285Z,41.10
2019-02-06T10:10:50.653Z,40.50
2019-02-06T10:12:58.047Z,40.87
2019-02-06T10:15:05.661Z,42.93
2019-02-06T10:17:13.129Z,50.67
2019-02-06T10:19:20.473Z,51.50
2019-02-06T10:21:27.845Z,59.57
2019-02-06T10:23:35.342Z,52.93
2019-02-06T10:25:43.459Z,53.03
2019-02-06T10:27:51.066Z,45.80
2019-02-06T10:29:58.728Z,50.83
2019-02-06T10:32:07.436Z,47.53
2019-02-06T10:34:15.026Z,44.10
2019-02-06T10:36:22.450Z,45.93
2019-02-06T10:38:29.913Z,44.30
2019-02-06T10:40:37.288Z,57.60
2019-02-06T10:42:44.866Z,46.47
2019-02-06T10:44:52.311Z,44.97
2019-02-06T10:46:59.731Z,41.40
2019-02-06T10:49:07.820Z,77.83
2019-02-06T10:51:15.870Z,48.80
2019-02-06T10:53:25.026Z,41.87
2019-02-06T10:55:32.514Z,52.43
2019-02-06T10:57:40.334Z,43.20
2019-02-06T10:59:47.902Z,48.40
2019-02-06T11:01:55.535Z,45.40
2019-02-06T11:04:03.012Z,55.70
2019-02-06T11:06:10.705Z,43.07
2019-02-06T11:08:18.524Z,57.33
2019-02-06T11:10:26.351Z,60.50
2019-02-06T11:12:34.385Z,50.87
2019-02-06T11:14:42.010Z,50.63
2019-02-06T11:16:49.553Z,49.80
2019-02-06T11:18:57.329Z,45.63
2019-02-06T11:21:04.696Z,48.97
2019-02-06T11:23:12.285Z,45.77
2019-02-06T11:25:20.080Z,52.87
2019-02-06T11:27:27.706Z,50.73
2019-02-06T11:29:35.219Z,56.13
2019-02-06T11:31:42.821Z,59.47
2019-02-06T11:33:50.466Z,63.43
2019-02-06T11:35:58.090Z,60.13
2019-02-06T11:38:05.667Z,59.20
2019-02-06T11:40:18.644Z,87.67
2019-02-06T11:42:26.239Z,82.93
2019-02-06T11:44:33.990Z,62.60
2019-02-06T11:46:41.574Z,59.23
2019-02-06T11:48:49.087Z,48.37
2019-02-06T11:50:57.360Z,47.33
2019-02-06T11:53:05.018Z,60.07
2019-02-06T11:55:16.625Z,50.27
2019-02-06T11:57:24.427Z,67.07
2019-02-06T11:59:32.024Z,56.33
2019-02-06T12:01:46.409Z,82.00
2019-02-06T12:03:54.278Z,73.57
2019-02-06T12:06:01.562Z,42.27
2019-02-06T12:08:12.414Z,59.13
2019-02-06T12:10:19.126Z,48.03
2019-02-06T12:12:26.604Z,49.57
2019-02-06T12:14:34.200Z,50.97
2019-02-06T12:16:41.974Z,47.60
2019-02-06T12:18:49.472Z,39.20
2019-02-06T12:20:57.131Z,45.53
2019-02-06T12:23:05.595Z,44.90
2019-02-06T12:25:15.342Z,40.33
2019-02-06T12:27:23.265Z,45.07
2019-02-06T12:29:31.304Z,41.67
2019-02-06T12:31:39.050Z,43.23
2019-02-06T12:33:46.677Z,46.03
2019-02-06T12:35:54.087Z,56.47
2019-02-06T12:38:01.535Z,53.77
2019-02-06T12:40:20.747Z,45.03
2019-02-06T12:42:18.265Z,51.70
2019-02-06T12:44:25.291Z,41.80
2019-02-06T12:46:32.562Z,40.83
2019-02-06T12:48:40.161Z,44.93
2019-02-06T12:50:47.306Z,43.17
2019-02-06T12:52:57.225Z,43.07
2019-02-06T12:55:03.349Z,47.23
2019-02-06T12:57:10.396Z,41.03
2019-02-06T12:59:17.620Z,45.10
2019-02-06T13:01:24.840Z,48.60
2019-02-06T13:03:31.979Z,44.20
2019-02-06T13:05:39.085Z,57.63
2019-02-06T13:07:46.144Z,57.60
2019-02-06T13:09:53.196Z,52.17
2019-02-06T13:12:00.398Z,45.33
2019-02-06T13:14:07.663Z,61.43
2019-02-06T13:16:14.804Z,87.77
2019-02-06T13:18:24.140Z,77.97
2019-02-06T13:20:31.444Z,82.20
2019-02-06T13:22:38.469Z,100.33
2019-02-06T13:24:45.932Z,82.67
2019-02-06T13:26:53.047Z,109.30
2019-02-06T13:29:00.667Z,116.93
2019-02-06T13:31:07.718Z,119.30
2019-02-06T13:33:14.832Z,101.80
2019-02-06T13:35:21.895Z,100.80
2019-02-06T13:37:28.977Z,126.50
2019-02-06T13:39:36.070Z,117.83
2019-02-06T13:41:43.367Z,81.93
2019-02-06T13:43:50.568Z,98.07
2019-02-06T13:45:57.744Z,54.30
2019-02-06T13:48:05.342Z,51.27
2019-02-06T13:50:21.526Z,75.77
2019-02-06T13:52:22.189Z,56.00
2019-02-06T13:54:29.327Z,49.47
2019-02-06T13:56:37.136Z,60.70
2019-02-06T13:58:44.663Z,56.77
2019-02-06T14:00:52.599Z,47.87
2019-02-06T14:02:59.936Z,48.80
2019-02-06T14:05:07.212Z,49.20
2019-02-06T14:07:14.316Z,51.83
2019-02-06T14:09:24.251Z,52.03
2019-02-06T14:11:30.208Z,55.50
2019-02-06T14:13:37.388Z,94.97
2019-02-06T14:15:47.038Z,102.97
2019-02-06T14:17:54.463Z,70.40
2019-02-06T14:20:01.917Z,103.23
2019-02-06T14:22:09.990Z,94.83
2019-02-06T14:24:55.503Z,90.33
2019-02-06T14:27:59.666Z,100.27
2019-02-06T14:31:02.846Z,61.07
2019-02-06T14:34:21.520Z,60.20
2019-02-06T14:37:45.814Z,55.87
2019-02-06T14:40:53.659Z,46.53
2019-02-06T14:43:39.074Z,41.23
2019-02-06T14:46:47.907Z,50.50
2019-02-06T14:49:34.916Z,60.20
2019-02-06T14:52:23.418Z,53.33
2019-02-06T14:55:24.700Z,43.77
2019-02-06T14:58:22.519Z,49.43
2019-02-06T15:00:59.910Z,72.97
2019-02-06T15:03:58.642Z,65.17
2019-02-06T15:07:05.892Z,48.23
2019-02-06T15:10:20.447Z,47.13
2019-02-06T15:13:22.637Z,47.77
2019-02-06T15:16:09.783Z,61.60
2019-02-06T15:19:15.013Z,46.90
2019-02-06T15:22:17.557Z,54.77
2019-02-06T15:25:08.515Z,64.80
2019-02-06T15:28:06.666Z,61.03
2019-02-06T15:31:22.655Z,60.47
2019-02-06T15:34:15.521Z,69.50
2019-02-06T15:36:50.615Z,71.50
2019-02-06T15:39:51.614Z,62.07
2019-02-06T15:42:57.580Z,69.53
2019-02-06T15:45:37.884Z,106.37
2019-02-06T15:48:30.023Z,81.83
2019-02-06T15:51:38.383Z,136.20
2019-02-06T15:54:21.176Z,170.10
2019-02-06T15:57:26.677Z,126.77
2019-02-06T16:00:24.393Z,152.67
2019-02-06T16:03:56.158Z,92.70
2019-02-06T16:06:53.242Z,100.50
2019-02-06T16:09:45.814Z,92.07
2019-02-06T16:13:08.604Z,109.97
2019-02-06T16:16:44.260Z,115.30
2019-02-06T16:19:23.774Z,114.60
2019-02-06T16:22:07.317Z,99.27
2019-02-06T16:25:09.966Z,104.53
2019-02-06T16:28:00.204Z,99.90
2019-02-06T16:31:12.619Z,110.33
2019-02-06T16:34:06.473Z,105.10
2019-02-06T16:40:37.580Z,107.23
2019-02-06T16:43:35.460Z,112.23
2019-02-06T16:46:49.681Z,102.87
2019-02-06T16:49:28.020Z,94.63
2019-02-06T16:52:19.816Z,109.00
2019-02-06T16:55:30.927Z,102.17
2019-02-06T16:58:20.822Z,94.77
2019-02-06T17:01:21.922Z,89.53
2019-02-06T17:04:04.922Z,86.40
2019-02-06T17:06:45.616Z,89.50
2019-02-06T17:10:05.007Z,79.33
2019-02-06T17:12:59.326Z,80.20
2019-02-06T17:16:11.980Z,82.03
2019-02-06T17:19:17.013Z,81.00
2019-02-06T17:22:08.311Z,84.90
2019-02-06T17:25:10.264Z,85.53
2019-02-06T17:28:27.993Z,87.00
2019-02-06T17:31:42.589Z,94.87
2019-02-06T17:34:48.624Z,80.47
2019-02-06T17:37:56.649Z,81.77
2019-02-06T17:41:18.643Z,93.00
2019-02-06T17:44:17.176Z,100.63
2019-02-06T17:46:51.394Z,97.73
2019-02-06T17:49:49.659Z,158.63
2019-02-06T17:52:44.527Z,202.00
2019-02-06T17:55:38.985Z,172.70
2019-02-06T17:57:47.083Z,169.40
2019-02-06T17:59:54.628Z,164.43
2019-02-06T18:02:02.539Z,163.77
2019-02-06T18:04:49.401Z,147.70
2019-02-06T18:06:57.334Z,151.77
2019-02-06T18:09:08.399Z,148.47
2019-02-06T18:11:16.098Z,179.23
2019-02-06T18:13:24.149Z,203.63
2019-02-06T18:15:31.671Z,177.50
2019-02-06T18:17:39.331Z,191.53
2019-02-06T18:19:47.163Z,220.73
2019-02-06T18:21:54.749Z,239.87
2019-02-06T18:24:02.279Z,227.07
2019-02-06T18:26:10.224Z,274.43
2019-02-06T18:28:18.520Z,244.70
2019-02-06T18:30:27.410Z,238.00
2019-02-06T18:32:34.884Z,225.70
2019-02-06T18:34:42.621Z,237.73
2019-02-06T18:36:50.135Z,230.57
2019-02-06T18:38:58.127Z,212.23
2019-02-06T18:41:06.156Z,141.27
2019-02-06T18:43:13.708Z,140.77
2019-02-06T18:45:22.748Z,153.70
2019-02-06T18:47:30.484Z,129.27
2019-02-06T18:49:37.838Z,114.80
2019-02-06T18:51:45.849Z,100.00
2019-02-06T18:53:53.562Z,90.93
2019-02-06T18:56:01.080Z,111.57
2019-02-06T18:58:09.308Z,107.73
2019-02-06T19:00:24.478Z,108.80
2019-02-06T19:02:32.195Z,106.07
2019-02-06T19:04:40.720Z,108.10
2019-02-06T19:06:48.521Z,98.57
2019-02-06T19:08:58.093Z,100.20
2019-02-06T19:11:05.955Z,104.50
2019-02-06T19:13:14.356Z,102.00
2019-02-06T19:15:22.317Z,96.23
2019-02-06T19:17:30.959Z,112.70
2019-02-06T19:19:39.137Z,112.00
2019-02-06T19:21:46.722Z,114.00
2019-02-06T19:23:54.314Z,105.70
2019-02-06T19:26:01.986Z,105.03
2019-02-06T19:28:09.505Z,100.73
2019-02-06T19:30:26.020Z,94.40
2019-02-06T19:32:34.013Z,100.27
2019-02-06T19:34:41.687Z,98.70
2019-02-06T19:36:49.242Z,95.93
2019-02-06T19:38:56.762Z,92.30
2019-02-06T19:41:04.466Z,98.47
2019-02-06T19:43:11.964Z,93.23
2019-02-06T19:45:20.060Z,131.13
2019-02-06T19:47:30.560Z,109.97
2019-02-06T19:49:37.765Z,86.27
2019-02-06T19:51:45.730Z,78.33
2019-02-06T19:53:53.246Z,71.63
2019-02-06T19:56:00.948Z,77.83
2019-02-06T19:58:09.385Z,77.40
2019-02-06T20:00:21.317Z,72.07
2019-02-06T20:02:29.247Z,80.40
2019-02-06T20:04:37.232Z,77.33
2019-02-06T20:06:44.979Z,90.47
2019-02-06T20:08:52.697Z,82.63
2019-02-06T20:11:01.254Z,82.77
2019-02-06T20:13:11.441Z,82.20
2019-02-06T20:15:18.327Z,82.97
2019-02-06T20:17:26.190Z,83.73
2019-02-06T20:19:33.920Z,92.90
2019-02-06T20:21:41.462Z,93.20
2019-02-06T20:23:48.838Z,95.97
2019-02-06T20:25:56.916Z,101.93
2019-02-06T20:28:04.821Z,101.83
2019-02-06T20:30:17.294Z,98.87
2019-02-06T20:32:24.945Z,124.80
2019-02-06T20:34:32.834Z,127.93
2019-02-06T20:36:40.549Z,139.87
2019-02-06T20:38:48.841Z,139.70
2019-02-06T20:40:58.407Z,158.33
2019-02-06T20:43:06.295Z,151.33
2019-02-06T20:45:14.124Z,156.90
2019-02-06T20:47:22.064Z,149.50
2019-02-06T20:49:29.731Z,123.13
2019-02-06T20:51:37.439Z,118.87
2019-02-06T20:53:45.212Z,107.60
2019-02-06T20:55:52.867Z,131.67
2019-02-06T20:58:00.613Z,124.03
2019-02-06T21:00:12.751Z,107.23
2019-02-06T21:02:20.440Z,93.47
2019-02-06T21:04:28.333Z,86.90
2019-02-06T21:06:35.766Z,89.43
2019-02-06T21:08:43.386Z,88.77
2019-02-06T21:10:51.376Z,79.77
2019-02-06T21:12:59.274Z,104.23
2019-02-06T21:15:06.913Z,90.37
2019-02-06T21:17:14.566Z,108.53
2019-02-06T21:19:22.638Z,100.07
2019-02-06T21:21:30.419Z,96.03
2019-02-06T21:23:37.940Z,93.53
2019-02-06T21:25:46.962Z,94.70
2019-02-06T21:27:54.549Z,90.53
2019-02-06T21:30:02.187Z,83.73
2019-02-06T21:32:09.691Z,94.83
2019-02-06T21:34:17.266Z,83.73
2019-02-06T21:36:24.667Z,94.77
2019-02-06T21:38:32.313Z,82.27
2019-02-06T21:40:39.850Z,96.63
2019-02-06T21:42:47.946Z,120.40
2019-02-06T21:44:55.913Z,121.03
2019-02-06T21:47:04.022Z,132.67
2019-02-06T21:49:11.811Z,140.93
2019-02-06T21:51:19.451Z,139.47
2019-02-06T21:53:26.848Z,169.23
2019-02-06T21:55:34.608Z,168.97
2019-02-06T21:57:43.824Z,166.83
2019-02-06T21:59:51.359Z,169.70
2019-02-06T22:01:59.108Z,160.93
2019-02-06T22:04:07.094Z,157.93
2019-02-06T22:06:14.911Z,141.10
2019-02-06T22:08:24.890Z,136.73
2019-02-06T22:10:32.548Z,137.00
2019-02-06T22:12:40.107Z,130.97
2019-02-06T22:14:47.868Z,128.67
2019-02-06T22:16:55.326Z,119.03
2019-02-06T22:19:03.195Z,140.30
2019-02-06T22:21:11.061Z,126.37
2019-02-06T22:23:19.032Z,123.20
2019-02-06T22:25:27.199Z,124.07
2019-02-06T22:27:35.334Z,111.67
2019-02-06T22:29:43.380Z,134.13
2019-02-06T22:31:51.099Z,117.83
2019-02-06T22:33:59.224Z,113.20
2019-02-06T22:36:07.064Z,124.13
2019-02-06T22:38:14.823Z,124.73
2019-02-06T22:40:24.492Z,124.47
2019-02-06T22:42:32.561Z,129.23
2019-02-06T22:44:41.136Z,145.67
2019-02-06T22:46:48.978Z,147.70
2019-02-06T22:48:56.967Z,143.60
2019-02-06T22:51:04.796Z,139.87
2019-02-06T22:53:12.707Z,137.43
2019-02-06T22:55:20.625Z,127.00
2019-02-06T22:57:28.632Z,132.53
2019-02-06T22:59:36.252Z,116.83
2019-02-06T23:02:02.177Z,121.07
2019-02-06T23:04:09.885Z,127.07
2019-02-06T23:06:17.649Z,116.53
2019-02-06T23:08:25.481Z,116.93
2019-02-06T23:10:33.128Z,114.00
2019-02-06T23:12:40.815Z,108.33
2019-02-06T23:14:48.459Z,117.47
2019-02-06T23:16:56.328Z,104.93
2019-02-06T23:19:04.176Z,108.23
2019-02-06T23:21:11.970Z,114.17
2019-02-06T23:23:19.798Z,104.17
2019-02-06T23:25:27.406Z,106.17
2019-02-06T23:27:35.143Z,105.50
2019-02-06T23:29:43.045Z,112.20
2019-02-06T23:31:50.981Z,106.10
2019-02-06T23:33:59.024Z,115.67
2019-02-06T23:36:07.212Z,97.07
2019-02-06T23:38:14.949Z,105.37
2019-02-06T23:40:22.918Z,109.23
2019-02-06T23:42:30.803Z,98.60
2019-02-06T23:44:38.533Z,99.77
2019-02-06T23:46:46.031Z,105.73
2019-02-06T23:48:53.651Z,110.77
2019-02-06T23:51:01.490Z,105.63
2019-02-06T23:53:09.153Z,102.40
2019-02-06T23:55:16.819Z,90.90
2019-02-06T23:57:24.380Z,94.97
2019-02-06T23:59:32.087Z,96.53
